Time;durP1;ratioP1;P1;durP2;ratioP2;P2;SDS_P1;SDS_P2;PMS_P1;PMS_P2;Temp;Humidity;BMP_temperature;BMP_pressure;BME280_temperature;BME280_humidity;BME280_pressure;Samples;Min_cycle;Max_cycle;Signal;HPM_P1;HPM_P2
2022/09/25 00:00:46;;;;;;;9.67;6.63;;;;;;;11.46;76.31;100454.82;1469037;88;22273;-81
2022/09/25 00:03:14;;;;;;;10.03;7.37;;;;;;;11.44;76.29;100447.01;1474719;88;23010;-80
2022/09/25 00:05:44;;;;;;;8.63;6.40;;;;;;;11.43;76.56;100439.23;1466382;88;21372;-80
2022/09/25 00:08:12;;;;;;;10.05;7.25;;;;;;;11.43;76.78;100449.33;1441421;88;21327;-80
2022/09/25 00:10:46;;;;;;;15.13;7.10;;;;;;;11.46;76.91;100452.17;1475280;88;21475;-81
2022/09/25 00:13:15;;;;;;;10.60;6.53;;;;;;;11.46;76.81;100453.50;1470322;88;21434;-81
2022/09/25 00:15:49;;;;;;;8.07;5.90;;;;;;;11.47;76.68;100449.84;1475080;88;21563;-81
2022/09/25 00:19:48;;;;;;;9.67;5.90;;;;;;;11.47;76.56;100440.58;1472507;88;22538;-81
2022/09/25 00:20:46;;;;;;;15.70;7.60;;;;;;;11.48;76.31;100443.58;1474441;88;21909;-81
2022/09/25 00:23:12;;;;;;;12.87;7.70;;;;;;;11.45;76.38;100443.86;1463119;88;21393;-79
2022/09/25 00:25:39;;;;;;;10.70;6.70;;;;;;;11.43;76.46;100436.58;1472480;88;22170;-80
2022/09/25 00:28:05;;;;;;;9.20;6.77;;;;;;;11.43;76.56;100436.08;1473127;88;21504;-80
2022/09/25 00:30:31;;;;;;;11.63;7.63;;;;;;;11.44;76.78;100440.88;1463214;88;21452;-80
2022/09/25 00:32:57;;;;;;;17.63;9.13;;;;;;;11.47;76.87;100435.27;1467429;88;21290;-79
2022/09/25 00:35:23;;;;;;;10.17;7.73;;;;;;;11.49;76.90;100428.01;1467178;88;21386;-79
2022/09/25 00:37:49;;;;;;;13.50;7.03;;;;;;;11.51;76.59;100422.08;1461308;87;21275;-81
2022/09/25 00:40:16;;;;;;;10.27;6.50;;;;;;;11.53;76.41;100422.73;1471746;88;21349;-80
2022/09/25 00:42:43;;;;;;;10.60;6.23;;;;;;;11.53;76.26;100418.25;1466287;88;21557;-80
2022/09/25 00:45:19;;;;;;;11.90;6.97;;;;;;;11.51;76.17;100416.77;1469107;88;21490;-80
2022/09/25 00:48:01;;;;;;;10.80;6.73;;;;;;;11.49;76.00;100417.41;1474950;88;22385;-80
2022/09/25 00:50:45;;;;;;;10.03;6.80;;;;;;;11.47;76.73;100410.09;1471028;88;21305;-80
2022/09/25 00:53:20;;;;;;;8.13;5.53;;;;;;;11.47;76.35;100410.09;1468992;88;21482;-81
2022/09/25 00:55:46;;;;;;;12.33;7.17;;;;;;;11.48;76.50;100409.13;1472014;88;22274;-80
2022/09/25 00:58:16;;;;;;;9.87;5.93;;;;;;;11.50;76.62;100412.44;1475323;88;21350;-80
2022/09/25 01:00:44;;;;;;;11.00;5.65;;;;;;;11.53;76.47;100406.83;1464367;88;21320;-80
2022/09/25 01:03:10;;;;;;;12.13;7.17;;;;;;;11.56;76.18;100414.47;1463774;88;21306;-80
2022/09/25 01:05:40;;;;;;;8.90;5.90;;;;;;;11.57;75.96;100408.20;1462690;88;22377;-79
2022/09/25 01:08:11;;;;;;;12.18;6.70;;;;;;;11.57;75.80;100406.05;1470590;88;21283;-80
2022/09/25 01:10:38;;;;;;;10.58;7.00;;;;;;;11.56;75.70;100411.81;1481668;88;21496;-80
2022/09/25 01:13:05;;;;;;;9.47;6.13;;;;;;;11.56;75.58;100408.34;1470885;88;21618;-80
2022/09/25 01:15:57;;;;;;;10.07;6.20;;;;;;;11.56;75.46;100407.84;1467857;88;21833;-79
2022/09/25 01:18:44;;;;;;;10.13;5.93;;;;;;;11.55;75.67;100411.98;1431537;91;22269;-80
2022/09/25 01:21:34;;;;;;;6.73;4.83;;;;;;;11.56;75.93;100405.19;1386232;88;21700;-80
2022/09/25 01:24:45;;;;;;;8.10;5.17;;;;;;;11.59;75.94;100411.50;1467994;88;21476;-80
2022/09/25 01:27:52;;;;;;;8.97;6.50;;;;;;;11.63;75.70;100408.08;1474294;88;21423;-80
2022/09/25 01:30:19;;;;;;;10.27;5.40;;;;;;;11.62;75.40;100405.89;1475109;88;22214;-79
2022/09/25 01:33:10;;;;;;;7.77;5.37;;;;;;;11.61;75.16;100401.59;1464098;88;21505;-78
2022/09/25 01:35:58;;;;;;;7.37;5.67;;;;;;;11.59;75.20;100402.23;1466909;88;21475;-80
2022/09/25 01:38:32;;;;;;;7.17;5.23;;;;;;;11.58;75.02;100399.25;1465951;88;21997;-80
2022/09/25 01:41:07;;;;;;;7.17;4.90;;;;;;;11.57;74.93;100400.75;1467824;88;21371;-80
2022/09/25 01:43:45;;;;;;;13.03;5.20;;;;;;;11.55;75.22;100401.38;1473000;88;22405;-80
2022/09/25 01:46:20;;;;;;;6.77;4.87;;;;;;;11.56;75.46;100396.41;1469152;88;22339;-81
2022/09/25 01:48:52;;;;;;;6.50;4.53;;;;;;;11.57;75.69;100394.95;1480075;88;22208;-80
2022/09/25 01:51:27;;;;;;;8.50;5.07;;;;;;;11.60;75.47;100393.31;1467481;88;21481;-80
2022/09/25 01:53:58;;;;;;;6.30;4.37;;;;;;;11.62;75.34;100390.48;1473955;88;21505;-80
2022/09/25 01:56:39;;;;;;;12.87;4.80;;;;;;;11.62;75.05;100387.34;1458920;88;21527;-80
2022/09/25 01:59:35;;;;;;;6.85;4.75;;;;;;;11.60;74.93;100384.03;1467278;88;21453;-80
2022/09/25 02:02:04;;;;;;;18.03;5.50;;;;;;;11.58;74.85;100380.70;1436724;91;22140;-80
2022/09/25 02:04:51;;;;;;;7.10;4.90;;;;;;;11.55;74.85;100380.18;1442213;90;21600;-80
2022/09/25 02:07:23;;;;;;;6.17;4.80;;;;;;;11.51;74.79;100378.34;1437492;90;21685;-80
2022/09/25 02:09:54;;;;;;;5.03;4.10;;;;;;;11.46;75.17;100373.48;1444653;90;21397;-80
2022/09/25 02:12:36;;;;;;;9.60;4.37;;;;;;;11.47;75.32;100375.64;1440309;90;21545;-79
2022/09/25 02:15:11;;;;;;;10.13;3.97;;;;;;;11.47;75.39;100374.31;1435134;90;21426;-78
2022/09/25 02:20:40;;;;;;;6.30;3.93;;;;;;;11.47;75.18;100373.82;1444747;90;21883;-76
2022/09/25 02:23:28;;;;;;;9.53;3.97;;;;;;;11.45;75.02;100372.30;1438341;90;21596;-76
2022/09/25 02:26:06;;;;;;;8.87;4.83;;;;;;;11.45;74.92;100377.61;1427824;90;21535;-78
2022/09/25 02:28:32;;;;;;;6.10;4.00;;;;;;;11.40;74.94;100373.28;1432564;90;21389;-78
2022/09/25 02:31:01;;;;;;;5.30;3.97;;;;;;;11.37;74.90;100380.22;1436179;90;21419;-79
2022/09/25 02:33:28;;;;;;;6.70;3.80;;;;;;;11.33;75.24;100378.34;1447773;90;21411;-77
2022/09/25 02:35:54;;;;;;;5.93;3.50;;;;;;;11.33;75.47;100379.67;1436530;90;21464;-79
2022/09/25 02:38:20;;;;;;;6.97;4.30;;;;;;;11.34;75.64;100369.93;1440152;90;21397;-78
2022/09/25 02:40:57;;;;;;;6.43;4.77;;;;;;;11.36;75.67;100373.23;1429821;90;21480;-78
2022/09/25 02:43:57;;;;;;;8.53;4.20;;;;;;;11.35;75.56;100364.47;1437705;90;21455;-78
2022/09/25 02:46:52;;;;;;;5.40;3.80;;;;;;;11.36;75.38;100364.79;1437685;90;21374;-79
2022/09/25 02:49:56;;;;;;;5.93;4.27;;;;;;;11.32;75.27;100367.42;1443433;90;21455;-79
2022/09/25 02:52:47;;;;;;;8.63;4.57;;;;;;;11.30;75.21;100367.56;1439008;90;21433;-79
2022/09/25 02:55:29;;;;;;;;;;;;;;;11.26;75.27;100373.34;1437890;90;22289;-80
2022/09/25 02:58:00;;;;;;;5.87;3.87;;;;;;;11.21;75.67;100371.14;1449920;90;20868;-79
2022/09/25 03:00:28;;;;;;;5.27;3.87;;;;;;;11.21;75.74;100369.81;1441528;90;22330;-80
2022/09/25 03:02:58;;;;;;;6.10;3.90;;;;;;;11.20;75.89;100368.16;1432018;91;22277;-80
2022/09/25 03:05:26;;;;;;;4.97;3.58;;;;;;;11.24;75.91;100368.17;1431100;91;21391;-80
2022/09/25 03:10:40;;;;;;;5.30;3.77;;;;;;;11.26;75.86;100365.39;1429189;91;21516;-80
2022/09/25 03:13:30;;;;;;;4.70;3.60;;;;;;;11.26;75.81;100367.54;1432860;91;22248;-80
2022/09/25 03:16:04;;;;;;;4.73;3.47;;;;;;;11.26;75.79;100368.87;1424336;91;21553;-79
2022/09/25 03:18:30;;;;;;;7.27;3.70;;;;;;;11.25;75.78;100364.56;1419988;91;21488;-79
2022/09/25 03:20:58;;;;;;;4.63;3.57;;;;;;;11.24;75.84;100357.58;1426737;91;21404;-79
2022/09/25 03:23:24;;;;;;;4.90;3.27;;;;;;;11.24;76.22;100362.87;1425756;91;22327;-79
2022/09/25 03:25:55;;;;;;;4.27;3.43;;;;;;;11.25;76.21;100361.91;1430560;91;21428;-80
2022/09/25 03:28:22;;;;;;;4.35;3.30;;;;;;;11.27;76.84;100354.63;1427800;91;22381;-79
2022/09/25 03:31:09;;;;;;;6.37;3.50;;;;;;;11.33;76.85;100355.00;1429036;91;22219;-80
2022/09/25 03:33:39;;;;;;;7.73;4.70;;;;;;;11.37;76.56;100349.75;1425583;91;21398;-79
2022/09/25 03:36:18;;;;;;;7.80;3.42;;;;;;;11.41;76.25;100345.79;1435063;91;21686;-79
2022/09/25 03:38:48;;;;;;;5.50;3.47;;;;;;;11.41;76.15;100341.81;1423210;91;21354;-80
2022/09/25 03:41:19;;;;;;;5.17;4.07;;;;;;;11.39;75.96;100341.13;1421681;91;22174;-80
2022/09/25 03:43:48;;;;;;;7.77;3.70;;;;;;;11.35;75.83;100335.81;1431886;91;21432;-79
2022/09/25 03:46:14;;;;;;;7.20;3.83;;;;;;;11.30;75.77;100331.80;1394188;94;21444;-79
2022/09/25 03:48:41;;;;;;;5.03;3.40;;;;;;;11.25;75.85;100327.47;1405238;92;22925;-80
2022/09/25 03:51:08;;;;;;;6.63;3.17;;;;;;;11.20;76.07;100332.89;1375377;95;21392;-80
2022/09/25 03:53:36;;;;;;;6.20;3.97;;;;;;;11.16;76.28;100328.37;1395328;94;21584;-80
2022/09/25 03:56:09;;;;;;;5.40;3.90;;;;;;;11.15;76.47;100326.72;1402295;92;22131;-79
2022/09/25 03:58:35;;;;;;;11.10;4.30;;;;;;;11.15;76.43;100326.72;1391275;94;21466;-78
2022/09/25 04:01:02;;;;;;;6.17;3.37;;;;;;;11.15;76.41;100331.19;1402330;93;22441;-79
2022/09/25 04:03:31;;;;;;;6.40;4.07;;;;;;;11.12;76.35;100327.03;1394824;94;21400;-80
2022/09/25 04:06:03;;;;;;;5.50;4.23;;;;;;;11.10;76.45;100325.52;1386042;93;21480;-80
2022/09/25 04:08:30;;;;;;;6.27;4.80;;;;;;;11.06;76.32;100326.32;1387586;94;21919;-79
2022/09/25 04:11:00;;;;;;;9.20;4.40;;;;;;;11.01;76.35;100327.27;1391941;94;22375;-79
2022/09/25 04:13:30;;;;;;;9.08;4.28;;;;;;;10.97;76.77;100326.75;1408318;93;21413;-79
2022/09/25 04:15:59;;;;;;;4.78;3.62;;;;;;;10.93;77.00;100321.89;1378800;95;22441;-79
2022/09/25 04:18:30;;;;;;;4.93;3.80;;;;;;;10.93;77.17;100331.16;1406232;92;21644;-79
2022/09/25 04:21:05;;;;;;;6.83;4.37;;;;;;;10.92;77.37;100334.81;1405353;93;21459;-79
2022/09/25 04:23:31;;;;;;;6.77;4.30;;;;;;;10.91;77.27;100330.50;1394821;92;21268;-80
2022/09/25 04:25:58;;;;;;;9.93;4.27;;;;;;;10.90;77.21;100330.15;1390294;93;21452;-80
2022/09/25 04:28:26;;;;;;;7.40;3.77;;;;;;;10.90;77.39;100330.15;1411700;93;21348;-80
2022/09/25 04:30:52;;;;;;;8.73;3.83;;;;;;;10.89;77.52;100327.17;1403970;92;21423;-79
2022/09/25 04:36:05;;;;;;;8.17;3.90;;;;;;;10.89;77.89;100320.05;1406565;91;21591;-80
2022/09/25 04:38:31;;;;;;;9.57;3.97;;;;;;;10.93;77.93;100321.89;1401177;93;22397;-80
2022/09/25 04:41:00;;;;;;;4.53;3.47;;;;;;;10.95;77.99;100323.41;1408218;92;21383;-80
2022/09/25 04:43:31;;;;;;;4.70;3.30;;;;;;;10.99;77.93;100321.28;1399919;93;21391;-80
2022/09/25 04:46:02;;;;;;;4.77;4.20;;;;;;;11.00;77.83;100319.81;1408850;92;22404;-80
2022/09/25 04:48:30;;;;;;;7.13;4.03;;;;;;;11.00;77.62;100326.94;1403612;93;22257;-79
2022/09/25 04:50:57;;;;;;;5.70;3.43;;;;;;;10.97;77.49;100320.12;1411052;92;21346;-80
2022/09/25 04:53:29;;;;;;;8.17;3.77;;;;;;;10.88;78.25;100315.75;1411582;92;21435;-79
2022/09/25 04:56:01;;;;;;;3.50;3.00;;;;;;;10.78;79.10;100318.46;1405881;93;21590;-80
2022/09/25 04:58:27;;;;;;;8.27;4.27;;;;;;;10.68;79.91;100329.63;1405991;93;21443;-80
2022/09/25 05:00:53;;;;;;;9.33;5.63;;;;;;;10.64;80.45;100325.60;1414488;92;22426;-80
2022/09/25 05:03:19;;;;;;;8.03;3.60;;;;;;;10.65;80.75;100327.28;1403596;93;21354;-80
2022/09/25 05:05:45;;;;;;;5.63;3.87;;;;;;;10.71;80.60;100330.66;1402891;93;21348;-81
2022/09/25 05:08:11;;;;;;;5.17;3.73;;;;;;;10.71;81.67;100326.68;1408216;93;21914;-78
2022/09/25 05:10:38;;;;;;;4.87;3.83;;;;;;;10.68;81.08;100329.63;1408123;93;21362;-79
2022/09/25 05:13:07;;;;;;;7.70;4.20;;;;;;;10.64;81.19;100329.57;1407607;92;21406;-79
2022/09/25 05:15:35;;;;;;;5.83;4.03;;;;;;;10.61;82.04;100333.34;1410715;92;21519;-79
2022/09/25 05:18:21;;;;;;;7.80;3.30;;;;;;;10.56;82.08;100331.67;1408633;92;22270;-78
2022/09/25 05:20:48;;;;;;;6.33;3.73;;;;;;;10.53;82.98;100319.20;1398133;93;21605;-80
2022/09/25 05:23:15;;;;;;;6.37;3.87;;;;;;;10.46;83.60;100316.83;1412122;92;21420;-78
2022/09/25 05:25:41;;;;;;;4.80;4.00;;;;;;;10.41;84.82;100317.76;1405900;93;21427;-79
2022/09/25 05:28:09;;;;;;;5.43;3.57;;;;;;;10.41;83.86;100315.11;1412825;92;21317;-79
2022/09/25 05:30:37;;;;;;;5.90;3.83;;;;;;;10.43;83.85;100313.98;1407005;93;21473;-79
2022/09/25 05:33:03;;;;;;;6.00;3.97;;;;;;;10.47;84.21;100321.13;1411953;92;21460;-79
2022/09/25 05:35:32;;;;;;;5.67;4.07;;;;;;;10.47;84.25;100323.77;1404098;92;21539;-80
2022/09/25 05:37:58;;;;;;;9.00;4.10;;;;;;;10.54;84.16;100323.53;1403164;93;21421;-80
2022/09/25 05:40:25;;;;;;;5.37;4.30;;;;;;;10.63;84.00;100323.95;1403333;92;21405;-79
2022/09/25 05:42:51;;;;;;;6.33;3.70;;;;;;;10.69;84.34;100318.55;1406591;92;21471;-80
2022/09/25 05:45:19;;;;;;;7.33;4.07;;;;;;;10.77;84.07;100318.13;1400350;93;21376;-81
2022/09/25 05:47:46;;;;;;;5.97;4.20;;;;;;;10.84;84.30;100316.52;1400537;93;21398;-78
2022/09/25 05:50:15;;;;;;;6.00;4.73;;;;;;;10.95;84.61;100316.79;1397387;93;21339;-79
2022/09/25 05:52:42;;;;;;;8.83;6.07;;;;;;;11.06;84.40;100317.88;1405042;92;21391;-79
2022/09/25 05:55:09;;;;;;;7.93;4.80;;;;;;;11.18;84.10;100318.47;1405168;93;22330;-78
2022/09/25 05:57:36;;;;;;;14.60;5.27;;;;;;;11.29;83.78;100315.57;1397476;93;21561;-78
2022/09/25 06:00:08;;;;;;;7.70;5.00;;;;;;;11.38;83.99;100316.95;1404437;93;22501;-80
2022/09/25 06:02:34;;;;;;;9.47;5.77;;;;;;;11.45;83.16;100317.98;1418412;92;21435;-78
2022/09/25 06:05:01;;;;;;;8.13;5.77;;;;;;;11.51;82.72;100322.69;1414520;92;21414;-79
2022/09/25 06:07:27;;;;;;;9.10;5.90;;;;;;;11.58;82.61;100324.20;1407822;92;21442;-79
2022/09/25 06:09:53;;;;;;;6.73;5.47;;;;;;;11.66;82.73;100330.88;1400915;92;21412;-80
2022/09/25 06:12:19;;;;;;;8.63;5.57;;;;;;;11.74;82.43;100330.44;1414739;92;21583;-80
2022/09/25 06:14:45;;;;;;;9.63;5.97;;;;;;;11.84;82.08;100327.66;1411203;92;21531;-79
2022/09/25 06:17:12;;;;;;;8.43;5.17;;;;;;;11.93;81.94;100335.19;1410611;92;21442;-79
2022/09/25 06:19:38;;;;;;;7.00;5.50;;;;;;;12.02;81.50;100339.53;1402266;93;21840;-79
2022/09/25 06:22:04;;;;;;;6.47;5.13;;;;;;;12.08;81.06;100341.55;1405047;93;21487;-79
2022/09/25 06:24:30;;;;;;;7.63;5.90;;;;;;;12.15;80.71;100347.89;1408797;93;22388;-80
2022/09/25 06:26:56;;;;;;;8.53;4.93;;;;;;;12.21;80.34;100350.41;1397993;93;21429;-79
2022/09/25 06:29:23;;;;;;;6.17;4.67;;;;;;;12.28;80.20;100351.91;1405499;93;21359;-79
2022/09/25 06:31:52;;;;;;;8.03;5.00;;;;;;;12.35;80.32;100355.60;1407957;92;21353;-80
2022/09/25 06:34:18;;;;;;;9.90;4.67;;;;;;;12.42;80.09;100356.10;1429056;92;22270;-78
2022/09/25 06:36:44;;;;;;;7.33;5.70;;;;;;;12.51;80.08;100352.98;1405279;93;22451;-80
2022/09/25 06:39:11;;;;;;;10.27;7.27;;;;;;;12.59;79.64;100354.33;1407593;93;21567;-80
2022/09/25 06:41:37;;;;;;;14.57;8.23;;;;;;;12.70;79.25;100354.52;1404537;93;21398;-80
2022/09/25 06:44:03;;;;;;;16.37;8.73;;;;;;;12.79;78.55;100360.17;1403875;93;21532;-82
2022/09/25 06:46:29;;;;;;;17.53;8.07;;;;;;;12.85;78.19;100361.35;1405564;93;22248;-81
2022/09/25 06:49:00;;;;;;;13.97;7.27;;;;;;;12.91;77.76;100363.34;1404287;93;21361;-81
2022/09/25 06:51:31;;;;;;;11.60;7.67;;;;;;;12.96;77.25;100361.54;1398317;93;21726;-79
2022/09/25 06:53:56;;;;;;;15.87;10.27;;;;;;;12.99;77.09;100359.88;1410194;92;21420;-81
2022/09/25 06:56:22;;;;;;;16.17;8.87;;;;;;;13.07;77.03;100365.20;1406894;92;21457;-80
2022/09/25 06:58:49;;;;;;;15.93;9.90;;;;;;;13.11;76.66;100358.55;1398764;92;21487;-80
2022/09/25 07:01:16;;;;;;;10.20;7.97;;;;;;;13.19;76.60;100369.19;1405689;92;21390;-81
2022/09/25 07:03:45;;;;;;;11.60;7.90;;;;;;;13.31;77.05;100372.37;1403564;92;21583;-81
2022/09/25 07:06:19;;;;;;;14.40;5.77;;;;;;;13.42;76.74;100370.70;1410637;92;21547;-81
2022/09/25 07:08:47;;;;;;;9.40;5.73;;;;;;;13.55;76.51;100370.18;1411313;92;22794;-80
2022/09/25 07:11:17;;;;;;;10.00;5.97;;;;;;;13.70;76.02;100377.00;1396798;93;22341;-81
2022/09/25 07:13:43;;;;;;;7.62;5.72;;;;;;;13.85;75.41;100372.63;1414322;92;21459;-80
2022/09/25 07:16:16;;;;;;;8.10;5.93;;;;;;;13.97;74.90;100369.10;1391087;92;21419;-80
2022/09/25 07:18:44;;;;;;;11.83;7.73;;;;;;;14.06;74.55;100370.73;1411286;93;21509;-80
2022/09/25 07:21:16;;;;;;;14.07;7.57;;;;;;;14.15;74.14;100371.03;1404276;92;21405;-80
2022/09/25 07:23:43;;;;;;;12.43;8.77;;;;;;;14.26;73.90;100364.50;1407712;93;21494;-79
2022/09/25 07:26:13;;;;;;;10.03;8.10;;;;;;;14.36;73.77;100367.80;1410051;92;21420;-80
2022/09/25 07:28:41;;;;;;;8.70;7.17;;;;;;;14.40;73.30;100363.77;1401844;93;21428;-80
2022/09/25 07:31:15;;;;;;;11.30;6.97;;;;;;;14.45;73.22;100369.41;1407800;92;21405;-80
2022/09/25 07:33:41;;;;;;;10.00;6.33;;;;;;;14.51;72.90;100363.06;1393529;92;21647;-80
2022/09/25 07:36:08;;;;;;;8.27;6.23;;;;;;;14.56;72.63;100362.08;1404696;93;22256;-81
2022/09/25 07:38:35;;;;;;;9.83;6.10;;;;;;;14.59;72.42;100354.56;1401931;93;21531;-81
2022/09/25 07:41:05;;;;;;;7.33;5.47;;;;;;;14.66;72.52;100360.83;1413073;93;21318;-80
2022/09/25 07:43:32;;;;;;;8.40;6.07;;;;;;;14.73;72.45;100359.64;1407898;92;21324;-81
2022/09/25 07:46:00;;;;;;;7.70;5.40;;;;;;;14.79;72.41;100353.61;1403088;93;21525;-81
2022/09/25 07:48:29;;;;;;;8.70;6.07;;;;;;;14.87;72.00;100352.22;1415572;92;22428;-80
2022/09/25 07:51:06;;;;;;;7.63;5.80;;;;;;;15.01;72.04;100353.27;1411899;89;21586;-80
2022/09/25 07:53:32;;;;;;;8.10;6.03;;;;;;;15.14;71.58;100352.69;1415174;91;21545;-80
2022/09/25 07:56:00;;;;;;;8.13;5.93;;;;;;;15.31;71.34;100356.87;1419293;89;22266;-85
2022/09/25 07:58:27;;;;;;;9.13;5.30;;;;;;;15.46;71.18;100350.73;1420906;90;21498;-84
2022/09/25 08:00:59;;;;;;;6.60;5.10;;;;;;;15.59;71.35;100350.92;1422345;89;21587;-86
2022/09/25 08:03:27;;;;;;;6.80;5.50;;;;;;;15.72;69.93;100349.83;1423917;89;21535;-78
2022/09/25 08:06:03;;;;;;;8.37;5.53;;;;;;;15.82;69.91;100340.20;1332346;93;21369;-82
2022/09/25 08:08:30;;;;;;;10.20;5.70;;;;;;;15.89;69.30;100342.99;1339086;93;21252;-80
2022/09/25 08:11:10;;;;;;;10.70;5.67;;;;;;;15.90;68.53;100348.64;1358750;92;21343;-80
2022/09/25 08:13:37;;;;;;;8.85;6.05;;;;;;;15.90;68.38;100345.97;1492490;90;22311;-81
2022/09/25 08:16:13;;;;;;;6.63;5.60;;;;;;;15.87;68.52;100342.34;1343813;92;21348;-83
2022/09/25 08:18:41;;;;;;;8.43;5.63;;;;;;;15.82;68.38;100339.38;1495662;90;21281;-90
2022/09/25 08:21:09;;;;;;;9.23;6.43;;;;;;;15.75;68.56;100332.12;1362391;93;21406;-89
2022/09/25 08:23:35;;;;;;;8.60;6.00;;;;;;;15.68;68.74;100339.22;1376684;93;21400;-87
2022/09/25 08:26:02;;;;;;;18.07;12.13;;;;;;;15.61;69.70;100340.91;1404081;91;22098;-85
2022/09/25 08:28:28;;;;;;;18.90;12.63;;;;;;;15.47;69.14;100328.37;1400735;92;22315;-85
2022/09/25 08:30:58;;;;;;;20.27;12.80;;;;;;;15.35;69.59;100326.16;1423716;89;21336;-86
2022/09/25 08:33:25;;;;;;;22.00;11.70;;;;;;;15.34;69.52;100324.51;1425354;89;21343;-87
2022/09/25 08:36:03;;;;;;;14.40;9.20;;;;;;;15.41;70.54;100330.45;1402134;91;23262;-87
2022/09/25 08:38:33;;;;;;;14.33;8.27;;;;;;;15.53;69.91;100331.65;1420718;89;21365;-85
2022/09/25 08:41:11;;;;;;;11.00;7.13;;;;;;;15.53;70.01;100337.80;1415382;90;21366;-87
2022/09/25 08:43:58;;;;;;;9.17;6.03;;;;;;;15.63;69.54;100338.89;1420989;91;21401;-88
2022/09/25 08:49:25;;;;;;;7.10;5.13;;;;;;;15.74;68.19;100331.81;1497410;89;21306;-89
2022/09/25 08:51:56;;;;;;;12.60;5.97;;;;;;;15.84;67.14;100326.70;1477936;90;21274;-93
2022/09/25 08:54:28;;;;;;;8.17;5.97;;;;;;;15.89;66.10;100321.13;1324807;94;21344;-93
2022/09/25 08:57:02;;;;;;;15.20;10.70;;;;;;;16.01;65.89;100316.15;1362627;89;22260;-90
2022/09/25 08:59:37;;;;;;;19.77;12.57;;;;;;;16.07;62.51;100315.91;1416325;89;21497;-89
2022/09/25 09:02:23;;;;;;;11.67;6.40;;;;;;;16.14;63.41;100314.99;1431665;89;21534;-92
2022/09/25 09:05:00;;;;;;;12.20;8.80;;;;;;;16.23;62.31;100311.20;1355558;91;21328;-91
2022/09/25 09:07:43;;;;;;;16.13;9.23;;;;;;;16.35;62.74;100304.03;1505058;89;21218;-88
2022/09/25 09:10:42;;;;;;;23.10;9.27;;;;;;;16.41;61.00;100307.28;1352699;93;21314;-90
2022/09/25 09:13:51;;;;;;;13.90;8.00;;;;;;;16.49;61.20;100289.81;1503857;89;21307;-90
2022/09/25 09:16:34;;;;;;;8.53;6.53;;;;;;;16.63;61.76;100295.61;1424782;89;21322;-92
2022/09/25 09:19:05;;;;;;;8.43;4.43;;;;;;;16.77;61.33;100295.75;1368865;91;21513;-89
2022/09/25 09:22:01;;;;;;;10.20;5.42;;;;;;;16.92;61.26;100303.21;1408639;89;21409;-90
2022/09/25 09:24:59;;;;;;;6.53;4.03;;;;;;;17.03;61.27;100289.33;1415704;90;22649;-92
2022/09/25 09:28:00;;;;;;;6.73;4.70;;;;;;;17.09;59.85;100294.38;1418330;90;21613;-87
2022/09/25 09:30:44;;;;;;;7.08;4.40;;;;;;;17.01;59.08;100300.72;1369520;94;22472;-86
2022/09/25 09:33:40;;;;;;;5.83;5.23;;;;;;;16.99;59.54;100298.73;1360069;95;22313;-89
2022/09/25 09:36:24;;;;;;;8.00;6.00;;;;;;;16.93;59.09;100296.83;1358228;95;21651;-88
2022/09/25 09:39:21;;;;;;;14.90;9.70;;;;;;;16.93;59.63;100290.66;1344584;96;21689;-88
2022/09/25 09:42:11;;;;;;;16.53;11.47;;;;;;;16.93;59.48;100287.48;1358541;95;21703;-89
2022/09/25 09:45:07;;;;;;;18.17;13.62;;;;;;;16.88;59.06;100285.37;1360152;95;22450;-88
2022/09/25 09:48:28;;;;;;;11.23;6.30;;;;;;;16.92;60.00;100285.84;1360529;95;21643;-88
2022/09/25 09:51:15;;;;;;;10.40;6.27;;;;;;;16.93;59.99;100283.47;1385754;94;21602;-87
2022/09/25 09:54:12;;;;;;;11.07;7.77;;;;;;;16.97;60.32;100290.07;1376608;93;21649;-87
2022/09/25 09:56:43;;;;;;;6.87;4.47;;;;;;;17.03;60.24;100292.48;1373506;93;21494;-84
2022/09/25 09:59:28;;;;;;;7.42;4.78;;;;;;;17.05;60.30;100288.60;1386534;94;21427;-86
2022/09/25 10:02:05;;;;;;;8.37;5.07;;;;;;;17.06;59.95;100292.09;1386882;94;21442;-86
2022/09/25 10:04:36;;;;;;;6.93;4.67;;;;;;;17.06;59.31;100290.27;1387343;94;21703;-86
2022/09/25 10:07:15;;;;;;;12.23;4.30;;;;;;;17.07;59.30;100291.92;1366377;96;21559;-86
2022/09/25 10:09:41;;;;;;;5.77;4.17;;;;;;;17.08;59.19;100288.73;1374157;95;21362;-86
2022/09/25 10:12:16;;;;;;;10.00;4.00;;;;;;;17.00;57.28;100293.70;1369501;94;21354;-86
2022/09/25 10:14:46;;;;;;;12.77;4.07;;;;;;;16.99;58.27;100298.73;1376944;94;21960;-86
2022/09/25 10:17:14;;;;;;;6.95;5.12;;;;;;;16.97;58.48;100301.28;1322341;93;22425;-85
2022/09/25 10:20:00;;;;;;;7.73;4.70;;;;;;;16.99;58.61;100301.92;1324599;94;21238;-87
2022/09/25 10:22:35;;;;;;;8.10;4.87;;;;;;;17.00;58.74;100303.05;1338671;92;21960;-86
2022/09/25 10:25:01;;;;;;;9.93;4.83;;;;;;;17.00;58.52;100301.71;1326459;94;21437;-86
2022/09/25 10:27:46;;;;;;;7.23;5.70;;;;;;;16.99;58.93;100303.27;1348201;92;21565;-86
2022/09/25 10:33:38;;;;;;;13.43;7.07;;;;;;;16.95;59.63;100303.34;1480134;92;21388;-85
2022/09/25 10:36:05;;;;;;;12.40;7.17;;;;;;;16.90;58.79;100299.38;1345068;91;21350;-86
2022/09/25 10:38:40;;;;;;;14.43;7.97;;;;;;;16.87;59.10;100297.09;1350311;91;21410;-84
2022/09/25 10:41:13;;;;;;;11.57;4.77;;;;;;;16.91;59.72;100293.00;1491950;91;21319;-84
2022/09/25 10:44:00;;;;;;;10.93;4.23;;;;;;;16.94;60.06;100293.12;1492995;91;21381;-85
2022/09/25 10:52:18;;;;;;;7.43;4.60;;;;;;;16.98;59.50;100293.08;1404548;91;21391;-84
2022/09/25 10:54:44;;;;;;;7.60;5.50;;;;;;;16.98;59.68;100292.26;1454872;93;21243;-86
2022/09/25 10:57:18;;;;;;;7.03;4.93;;;;;;;16.97;59.81;100290.59;1318456;93;21378;-85
2022/09/25 10:59:50;;;;;;;8.70;4.70;;;;;;;16.99;59.76;100290.72;1339442;93;21525;-86
2022/09/25 11:02:38;;;;;;;9.93;5.20;;;;;;;16.99;59.52;100282.70;1339943;93;21584;-83
2022/09/25 11:05:20;;;;;;;4.63;3.83;;;;;;;16.99;59.81;100280.53;1424704;90;21609;-84
2022/09/25 11:07:53;;;;;;;11.73;4.87;;;;;;;17.00;59.67;100284.34;1425117;91;21432;-86
2022/09/25 11:10:25;;;;;;;9.67;5.20;;;;;;;17.02;60.01;100283.64;1355290;91;21573;-85
2022/09/25 11:12:52;;;;;;;9.40;6.53;;;;;;;17.03;60.23;100282.64;1401875;87;21619;-84
2022/09/25 11:27:07;;;;;;;17.10;6.87;;;;;;;17.07;61.21;100278.55;1482249;84;21693;-81
2022/09/25 11:29:57;;;;;;;16.57;9.03;;;;;;;17.09;61.18;100276.52;1455261;89;21639;-86
2022/09/25 11:32:32;;;;;;;11.73;6.83;;;;;;;17.11;61.30;100279.80;1451680;89;21732;-87
2022/09/25 11:35:56;;;;;;;12.07;6.20;;;;;;;17.13;61.57;100283.12;1444581;89;21369;-87
2022/09/25 11:41:46;;;;;;;20.55;6.40;;;;;;;17.10;60.57;100273.33;1430198;90;21524;-85
2022/09/25 11:44:53;;;;;;;10.75;5.30;;;;;;;17.11;60.96;100272.30;1425693;90;21538;-83
2022/09/25 11:47:32;;;;;;;11.00;5.90;;;;;;;17.14;60.63;100275.41;1422826;91;21744;-87
2022/09/25 11:50:01;;;;;;;10.37;7.03;;;;;;;17.16;60.55;100273.06;1419352;91;21355;-87
2022/09/25 11:53:07;;;;;;;8.37;6.77;;;;;;;17.18;60.44;100280.39;1419867;91;22568;-85
2022/09/25 11:56:03;;;;;;;10.97;6.70;;;;;;;17.21;60.37;100280.82;1416436;91;21592;-87
2022/09/25 11:58:40;;;;;;;9.67;5.90;;;;;;;17.25;60.15;100275.91;1423656;91;21538;-87
2022/09/25 12:01:39;;;;;;;10.00;6.97;;;;;;;17.29;60.38;100275.81;1437628;88;21318;-87
2022/09/25 12:04:26;;;;;;;13.83;11.10;;;;;;;17.33;60.70;100283.78;1436865;90;21435;-83
2022/09/25 12:07:19;;;;;;;12.47;7.70;;;;;;;17.32;60.85;100276.77;1420912;90;22374;-88
2022/09/25 12:10:11;;;;;;;7.80;4.53;;;;;;;17.35;61.03;100271.88;1441200;90;21371;-86
2022/09/25 12:12:58;;;;;;;8.10;5.13;;;;;;;17.30;60.35;100272.14;1441418;90;21413;-87
2022/09/25 12:16:02;;;;;;;8.27;6.07;;;;;;;17.30;60.54;100264.94;1443998;90;22324;-88
2022/09/25 12:18:57;;;;;;;8.93;6.97;;;;;;;17.34;60.66;100262.69;1452063;90;22477;-88
2022/09/25 12:21:45;;;;;;;10.07;5.13;;;;;;;17.39;60.87;100265.61;1443220;90;21477;-87
2022/09/25 12:24:47;;;;;;;8.30;4.77;;;;;;;17.35;60.30;100267.86;1443907;90;21385;-86
2022/09/25 12:27:27;;;;;;;7.67;5.53;;;;;;;17.33;59.90;100266.39;1442623;90;21355;-88
2022/09/25 12:30:19;;;;;;;8.10;5.90;;;;;;;17.27;59.83;100262.66;1444544;90;21436;-85